createdAt,value
2019-02-02T00:00:35.087Z,15.53
2019-02-02T00:03:04.034Z,17.10
2019-02-02T00:05:32.863Z,16.00
2019-02-02T00:08:01.287Z,15.33
2019-02-02T00:10:30.018Z,16.50
2019-02-02T00:12:58.506Z,15.60
2019-02-02T00:15:26.946Z,18.13
2019-02-02T00:17:56.573Z,16.10
2019-02-02T00:20:25.159Z,16.03
2019-02-02T00:22:53.588Z,15.53
2019-02-02T00:25:22.000Z,16.20
2019-02-02T00:27:50.426Z,16.13
2019-02-02T00:30:19.774Z,15.70
2019-02-02T00:32:48.496Z,16.00
2019-02-02T00:35:16.913Z,15.73
2019-02-02T00:37:45.423Z,15.53
2019-02-02T00:40:16.577Z,18.30
2019-02-02T00:42:45.059Z,18.53
2019-02-02T00:45:21.703Z,17.80
2019-02-02T00:47:50.458Z,18.27
2019-02-02T00:50:19.872Z,22.30
2019-02-02T00:52:48.450Z,17.20
2019-02-02T00:55:20.747Z,18.60
2019-02-02T00:57:53.593Z,18.07
2019-02-02T01:00:27.322Z,17.47
2019-02-02T01:02:55.807Z,17.47
2019-02-02T01:05:24.979Z,17.57
2019-02-02T01:07:54.337Z,18.43
2019-02-02T01:10:31.947Z,17.83
2019-02-02T01:13:01.218Z,18.10
2019-02-02T01:15:30.202Z,18.00
2019-02-02T01:17:58.627Z,18.03
2019-02-02T01:20:27.043Z,17.03
2019-02-02T01:22:55.478Z,16.73
2019-02-02T01:25:23.887Z,16.67
2019-02-02T01:28:04.458Z,16.40
2019-02-02T01:30:24.996Z,16.93
2019-02-02T01:32:53.436Z,16.93
2019-02-02T01:35:22.477Z,17.57
2019-02-02T01:37:50.899Z,17.33
2019-02-02T01:40:27.111Z,17.80
2019-02-02T01:42:56.418Z,15.77
2019-02-02T01:45:26.976Z,15.37
2019-02-02T01:47:56.263Z,16.03
2019-02-02T01:50:28.773Z,17.00
2019-02-02T01:52:57.356Z,15.83
2019-02-02T01:55:26.630Z,16.10
2019-02-02T01:57:55.314Z,16.33
2019-02-02T02:00:26.475Z,15.40
2019-02-02T02:02:55.165Z,17.57
2019-02-02T02:05:23.847Z,17.33
2019-02-02T02:07:52.259Z,16.77
2019-02-02T02:10:21.520Z,16.67
2019-02-02T02:12:50.554Z,16.30
2019-02-02T02:15:20.114Z,16.30
2019-02-02T02:17:48.632Z,15.73
2019-02-02T02:20:19.348Z,15.53
2019-02-02T02:22:49.494Z,16.87
2019-02-02T02:25:19.446Z,15.00
2019-02-02T02:27:48.447Z,15.93
2019-02-02T02:30:18.600Z,15.43
2019-02-02T02:32:47.403Z,14.03
2019-02-02T02:35:15.810Z,15.57
2019-02-02T02:37:46.254Z,16.47
2019-02-02T02:40:19.833Z,14.67
2019-02-02T02:42:57.088Z,15.40
2019-02-02T02:45:25.506Z,15.73
2019-02-02T02:47:53.916Z,16.23
2019-02-02T02:50:22.589Z,14.97
2019-02-02T02:52:51.277Z,17.30
2019-02-02T02:55:20.555Z,16.47
2019-02-02T02:57:48.970Z,17.53
2019-02-02T03:00:26.311Z,15.77
2019-02-02T03:02:55.001Z,15.67
2019-02-02T03:05:23.839Z,15.80
2019-02-02T03:07:53.795Z,15.83
2019-02-02T03:10:24.936Z,15.33
2019-02-02T03:12:54.304Z,14.67
2019-02-02T03:15:23.298Z,16.80
2019-02-02T03:17:53.218Z,15.73
2019-02-02T03:20:21.657Z,16.93
2019-02-02T03:22:50.061Z,17.27
2019-02-02T03:25:21.376Z,17.77
2019-02-02T03:27:49.776Z,18.00
2019-02-02T03:30:20.221Z,16.90
2019-02-02T03:32:52.483Z,16.57
2019-02-02T03:35:23.225Z,16.87
2019-02-02T03:37:52.473Z,17.53
2019-02-02T03:40:22.921Z,18.60
2019-02-02T03:42:51.984Z,19.33
2019-02-02T03:45:22.801Z,18.23
2019-02-02T03:47:52.594Z,18.03
2019-02-02T03:50:21.642Z,17.57
2019-02-02T03:52:50.060Z,21.57
2019-02-02T03:55:18.734Z,18.33
2019-02-02T03:57:47.168Z,17.00
2019-02-02T04:00:20.372Z,18.60
2019-02-02T04:02:49.341Z,18.47
2019-02-02T04:05:20.555Z,18.57
2019-02-02T04:07:48.978Z,19.80
2019-02-02T04:10:17.790Z,18.53
2019-02-02T04:12:46.282Z,18.80
2019-02-02T04:15:16.530Z,19.67
2019-02-02T04:17:44.945Z,18.43
2019-02-02T04:20:18.241Z,19.90
2019-02-02T04:22:46.923Z,18.77
2019-02-02T04:25:16.465Z,19.47
2019-02-02T04:27:44.877Z,19.17
2019-02-02T04:30:18.750Z,18.40
2019-02-02T04:32:47.151Z,18.93
2019-02-02T04:35:15.562Z,18.93
2019-02-02T04:37:44.152Z,19.13
2019-02-02T04:40:15.254Z,19.87
2019-02-02T04:42:43.914Z,19.77
2019-02-02T04:45:15.211Z,17.27
2019-02-02T04:47:43.915Z,18.87
2019-02-02T04:50:18.359Z,19.33
2019-02-02T04:52:47.131Z,20.87
2019-02-02T04:55:17.609Z,19.90
2019-02-02T04:57:46.101Z,19.63
2019-02-02T05:00:28.258Z,23.07
2019-02-02T05:02:56.677Z,19.63
2019-02-02T05:05:25.082Z,18.97
2019-02-02T05:07:53.500Z,20.57
2019-02-02T05:10:24.141Z,20.17
2019-02-02T05:12:53.452Z,19.90
2019-02-02T05:15:23.425Z,20.23
2019-02-02T05:17:51.842Z,18.90
2019-02-02T05:20:20.821Z,19.57
2019-02-02T05:22:49.510Z,20.07
2019-02-02T05:25:18.224Z,19.37
2019-02-02T05:27:46.672Z,18.77
2019-02-02T05:30:24.441Z,17.20
2019-02-02T05:32:53.193Z,19.63
2019-02-02T05:35:22.084Z,19.43
2019-02-02T05:37:50.497Z,18.50
2019-02-02T05:40:20.449Z,18.53
2019-02-02T05:42:49.225Z,18.30
2019-02-02T05:45:19.871Z,18.43
2019-02-02T05:47:48.550Z,18.37
2019-02-02T05:50:19.404Z,16.70
2019-02-02T05:52:47.806Z,18.67
2019-02-02T05:55:18.562Z,18.70
2019-02-02T05:57:46.970Z,17.00
2019-02-02T06:00:20.103Z,17.33
2019-02-02T06:02:48.513Z,17.63
2019-02-02T06:05:17.019Z,17.73
2019-02-02T06:07:45.775Z,18.17
2019-02-02T06:10:17.521Z,16.53
2019-02-02T06:12:45.934Z,18.23
2019-02-02T06:15:14.694Z,17.90
2019-02-02T06:17:43.106Z,16.37
2019-02-02T06:20:14.057Z,17.23
2019-02-02T06:22:42.448Z,16.90
2019-02-02T06:25:12.916Z,16.87
2019-02-02T06:27:41.376Z,17.57
2019-02-02T06:30:15.409Z,17.83
2019-02-02T06:32:43.810Z,17.97
2019-02-02T06:35:13.967Z,19.80
2019-02-02T06:37:42.976Z,21.90
2019-02-02T06:40:13.637Z,17.47
2019-02-02T06:42:42.048Z,16.90
2019-02-02T06:45:28.019Z,16.57
2019-02-02T06:47:56.502Z,14.60
2019-02-02T06:50:24.981Z,16.83
2019-02-02T06:52:53.452Z,14.73
2019-02-02T06:55:21.875Z,15.90
2019-02-02T06:57:50.292Z,14.97
2019-02-02T07:00:29.620Z,13.53
2019-02-02T07:02:58.901Z,14.63
2019-02-02T07:05:27.585Z,14.10
2019-02-02T07:07:55.997Z,14.80
2019-02-02T07:10:27.054Z,13.53
2019-02-02T07:12:55.758Z,12.90
2019-02-02T07:15:26.706Z,13.77
2019-02-02T07:17:55.180Z,12.90
2019-02-02T07:20:23.590Z,13.43
2019-02-02T07:22:51.997Z,11.80
2019-02-02T07:25:20.755Z,11.63
2019-02-02T07:27:49.158Z,10.40
2019-02-02T07:30:28.170Z,9.63
2019-02-02T07:32:51.043Z,8.03
2019-02-02T07:35:19.723Z,9.37
2019-02-02T07:37:48.360Z,9.27
2019-02-02T07:40:18.648Z,9.30
2019-02-02T07:42:47.042Z,9.30
2019-02-02T07:48:44.021Z,9.77
2019-02-02T07:51:12.463Z,11.13
2019-02-02T07:53:40.873Z,11.73
2019-02-02T07:56:09.347Z,13.30
2019-02-02T07:58:37.794Z,12.90
2019-02-02T08:01:30.388Z,11.33
2019-02-02T08:03:59.142Z,10.07
2019-02-02T08:06:27.554Z,10.90
2019-02-02T08:08:56.262Z,11.60
2019-02-02T08:11:24.678Z,11.03
2019-02-02T08:13:53.088Z,10.17
2019-02-02T08:16:21.502Z,10.37
2019-02-02T08:18:49.905Z,10.83
2019-02-02T08:21:18.666Z,10.73
2019-02-02T08:23:47.334Z,9.17
2019-02-02T08:26:15.756Z,9.73
2019-02-02T08:28:44.502Z,9.50
2019-02-02T08:31:12.918Z,10.97
2019-02-02T08:33:41.902Z,11.17
2019-02-02T08:36:10.323Z,10.93
2019-02-02T08:38:38.728Z,11.23
2019-02-02T08:41:07.143Z,10.90
2019-02-02T08:43:35.606Z,9.40
2019-02-02T08:46:04.663Z,10.60
2019-02-02T08:48:33.083Z,11.07
2019-02-02T08:51:01.518Z,10.17
2019-02-02T08:53:29.947Z,10.57
2019-02-02T08:55:58.383Z,10.73
2019-02-02T08:58:26.831Z,10.30
2019-02-02T09:01:03.708Z,12.03
2019-02-02T09:03:25.485Z,12.10
2019-02-02T09:05:53.919Z,11.33
2019-02-02T09:08:22.366Z,10.30
2019-02-02T09:10:50.819Z,10.83
2019-02-02T09:13:19.269Z,11.03
2019-02-02T09:15:47.725Z,10.37
2019-02-02T09:18:16.170Z,10.43
2019-02-02T09:20:44.598Z,9.93
2019-02-02T09:23:13.060Z,9.20
2019-02-02T09:25:41.491Z,10.10
2019-02-02T09:28:09.934Z,9.60
2019-02-02T09:30:38.666Z,8.87
2019-02-02T09:33:07.355Z,9.27
2019-02-02T09:35:35.851Z,9.17
2019-02-02T09:38:04.670Z,9.13
2019-02-02T09:40:33.114Z,9.83
2019-02-02T09:43:01.564Z,9.10
2019-02-02T09:45:30.100Z,8.93
2019-02-02T09:47:58.553Z,9.17
2019-02-02T09:50:27.738Z,7.90
2019-02-02T09:52:56.823Z,9.10
2019-02-02T09:55:27.045Z,9.60
2019-02-02T09:57:58.434Z,8.67
2019-02-02T10:00:29.202Z,9.57
2019-02-02T10:02:58.081Z,8.90
2019-02-02T10:05:26.959Z,9.70
2019-02-02T10:07:55.704Z,8.30
2019-02-02T10:10:26.497Z,9.50
2019-02-02T10:12:55.010Z,9.57
2019-02-02T10:15:23.506Z,9.40
2019-02-02T10:17:51.970Z,9.73
2019-02-02T10:20:29.244Z,9.93
2019-02-02T10:22:59.115Z,9.67
2019-02-02T10:25:31.786Z,9.27
2019-02-02T10:28:00.224Z,9.27
2019-02-02T10:30:34.434Z,8.47
2019-02-02T10:33:03.210Z,7.47
2019-02-02T10:35:32.099Z,7.57
2019-02-02T10:38:00.545Z,7.60
2019-02-02T10:40:30.131Z,7.30
2019-02-02T10:42:59.030Z,7.80
2019-02-02T10:45:28.066Z,7.20
2019-02-02T10:47:56.865Z,7.13
2019-02-02T10:50:27.174Z,7.53
2019-02-02T10:52:55.786Z,7.97
2019-02-02T10:55:24.242Z,8.07
2019-02-02T10:57:52.665Z,8.40
2019-02-02T11:00:35.815Z,7.70
2019-02-02T11:03:04.797Z,8.37
2019-02-02T11:05:33.269Z,8.20
2019-02-02T11:08:01.788Z,7.03
2019-02-02T11:10:32.657Z,8.67
2019-02-02T11:13:01.869Z,8.23
2019-02-02T11:15:30.857Z,7.87
2019-02-02T11:17:59.681Z,9.13
2019-02-02T11:20:33.901Z,8.60
2019-02-02T11:23:02.835Z,8.93
2019-02-02T11:25:31.802Z,8.03
2019-02-02T11:28:00.401Z,8.77
2019-02-02T11:30:30.541Z,9.37
2019-02-02T11:33:00.010Z,8.63
2019-02-02T11:35:28.442Z,9.07
2019-02-02T11:37:56.889Z,10.23
2019-02-02T11:40:27.670Z,9.13
2019-02-02T11:42:56.738Z,11.77
2019-02-02T11:45:25.354Z,10.40
2019-02-02T11:47:54.063Z,9.13
2019-02-02T11:50:23.054Z,8.70
2019-02-02T11:52:51.831Z,8.90
2019-02-02T11:55:23.795Z,8.77
2019-02-02T11:57:52.235Z,9.47
2019-02-02T12:00:31.923Z,9.33
2019-02-02T12:03:00.366Z,9.90
2019-02-02T12:05:28.846Z,9.30
2019-02-02T12:07:57.282Z,9.40
2019-02-02T12:10:27.869Z,9.57
2019-02-02T12:12:56.559Z,8.43
2019-02-02T12:15:25.902Z,9.17
2019-02-02T12:17:54.513Z,10.07
2019-02-02T12:20:24.382Z,10.03
2019-02-02T12:22:52.843Z,10.13
2019-02-02T12:25:21.575Z,10.27
2019-02-02T12:27:50.164Z,10.23
2019-02-02T12:30:21.918Z,11.40
2019-02-02T12:32:50.362Z,10.60
2019-02-02T12:35:24.410Z,10.33
2019-02-02T12:37:52.939Z,10.57
2019-02-02T12:43:50.617Z,10.53
2019-02-02T12:46:19.066Z,10.50
2019-02-02T12:48:47.500Z,10.90
2019-02-02T12:51:15.952Z,11.20
2019-02-02T12:53:44.377Z,11.47
2019-02-02T12:56:12.907Z,11.33
2019-02-02T12:58:41.376Z,11.03
2019-02-02T13:01:09.818Z,11.67
2019-02-02T13:03:38.247Z,12.47
2019-02-02T13:06:06.718Z,12.13
2019-02-02T13:08:35.143Z,11.90
2019-02-02T13:11:03.602Z,11.67
2019-02-02T13:13:32.026Z,10.13
2019-02-02T13:16:00.481Z,10.53
2019-02-02T13:18:28.948Z,10.10
2019-02-02T13:20:57.410Z,9.87
2019-02-02T13:23:25.829Z,10.60
2019-02-02T13:26:05.141Z,10.77
2019-02-02T13:28:24.435Z,10.80
2019-02-02T13:30:52.926Z,11.83
2019-02-02T13:33:21.852Z,10.73
2019-02-02T13:35:50.666Z,10.60
2019-02-02T13:38:19.877Z,11.57
2019-02-02T13:40:48.326Z,11.23
2019-02-02T13:43:16.783Z,11.23
2019-02-02T13:45:45.321Z,10.70
2019-02-02T13:48:13.761Z,10.63
2019-02-02T13:50:42.201Z,9.90
2019-02-02T13:53:10.807Z,9.83
2019-02-02T13:55:39.932Z,9.77
2019-02-02T13:58:08.697Z,9.40
2019-02-02T14:00:37.494Z,8.63
2019-02-02T14:03:08.860Z,9.00
2019-02-02T14:05:37.303Z,9.40
2019-02-02T14:08:06.122Z,8.70
2019-02-02T14:10:35.319Z,9.53
2019-02-02T14:13:03.787Z,9.70
2019-02-02T14:15:32.233Z,10.03
2019-02-02T14:18:00.691Z,10.70
2019-02-02T14:20:29.139Z,10.03
2019-02-02T14:22:57.743Z,10.13
2019-02-02T14:25:26.476Z,8.63
2019-02-02T14:27:54.908Z,9.17
2019-02-02T14:30:25.732Z,8.70
2019-02-02T14:32:54.998Z,8.67
2019-02-02T14:35:28.283Z,8.23
2019-02-02T14:37:56.777Z,8.03
2019-02-02T14:40:25.219Z,8.73
2019-02-02T14:42:56.217Z,8.53
2019-02-02T14:45:27.519Z,8.07
2019-02-02T14:47:56.376Z,7.93
2019-02-02T14:50:25.042Z,8.80
2019-02-02T14:52:56.956Z,8.97
2019-02-02T14:55:28.007Z,7.60
2019-02-02T14:57:56.450Z,8.00
2019-02-02T15:00:26.832Z,7.03
2019-02-02T15:02:55.770Z,7.63
2019-02-02T15:05:24.466Z,7.03
2019-02-02T15:07:54.868Z,7.53
2019-02-02T15:10:23.937Z,8.40
2019-02-02T15:12:52.390Z,8.70
2019-02-02T15:15:20.837Z,8.60
2019-02-02T15:17:49.806Z,7.43
2019-02-02T15:20:24.078Z,7.67
2019-02-02T15:22:52.950Z,7.67
2019-02-02T15:25:21.362Z,7.27
2019-02-02T15:27:49.839Z,7.20
2019-02-02T15:30:26.680Z,8.40
2019-02-02T15:32:56.134Z,7.40
2019-02-02T15:35:24.619Z,7.60
2019-02-02T15:37:53.067Z,7.93
2019-02-02T15:40:21.663Z,8.17
2019-02-02T15:42:50.098Z,7.60
2019-02-02T15:45:24.459Z,8.03
2019-02-02T15:47:53.483Z,7.87
2019-02-02T15:50:22.109Z,9.70
2019-02-02T15:52:50.884Z,11.43
2019-02-02T15:55:21.960Z,10.87
2019-02-02T15:57:50.745Z,11.10
2019-02-02T16:00:33.323Z,10.07
2019-02-02T16:03:01.757Z,11.10
2019-02-02T16:05:31.039Z,11.00
2019-02-02T16:08:01.831Z,11.13
2019-02-02T16:10:32.491Z,11.70
2019-02-02T16:13:01.383Z,10.10
2019-02-02T16:15:29.961Z,10.53
2019-02-02T16:17:58.408Z,10.67
2019-02-02T16:20:29.602Z,10.63
2019-02-02T16:23:00.422Z,10.67
2019-02-02T16:25:28.929Z,10.07
2019-02-02T16:27:57.372Z,9.93
2019-02-02T16:30:31.376Z,10.60
2019-02-02T16:32:59.897Z,11.63
2019-02-02T16:35:28.818Z,11.90
2019-02-02T16:37:57.265Z,10.67
2019-02-02T16:40:27.681Z,10.07
2019-02-02T16:42:56.411Z,10.50
2019-02-02T16:45:27.288Z,12.00
2019-02-02T16:47:55.737Z,11.13
2019-02-02T16:50:25.135Z,12.17
2019-02-02T16:52:53.785Z,12.27
2019-02-02T16:55:22.511Z,36.70
2019-02-02T16:57:51.405Z,15.67
2019-02-02T17:00:25.547Z,11.97
2019-02-02T17:02:54.004Z,12.70
2019-02-02T17:05:22.483Z,12.03
2019-02-02T17:07:50.930Z,11.33
2019-02-02T17:10:27.284Z,11.33
2019-02-02T17:12:55.726Z,11.87
2019-02-02T17:15:24.422Z,11.83
2019-02-02T17:17:53.033Z,11.73
2019-02-02T17:20:32.761Z,13.17
2019-02-02T17:23:07.152Z,13.20
2019-02-02T17:25:35.610Z,11.53
2019-02-02T17:28:04.914Z,12.63
2019-02-02T17:30:33.644Z,14.50
2019-02-02T17:33:04.734Z,13.07
2019-02-02T17:35:33.251Z,13.00
2019-02-02T17:38:01.690Z,12.70
2019-02-02T17:40:30.882Z,12.60
2019-02-02T17:42:59.627Z,14.47
2019-02-02T17:45:28.137Z,14.03
2019-02-02T17:47:56.575Z,13.73
2019-02-02T17:50:27.039Z,14.97
2019-02-02T17:52:57.591Z,13.63
2019-02-02T17:55:26.039Z,18.23
2019-02-02T17:57:54.721Z,17.10
2019-02-02T18:00:42.151Z,14.67
2019-02-02T18:03:10.829Z,13.50
2019-02-02T18:05:39.638Z,13.20
2019-02-02T18:08:08.124Z,13.07
2019-02-02T18:10:36.606Z,14.77
2019-02-02T18:13:05.411Z,15.37
2019-02-02T18:15:34.167Z,15.47
2019-02-02T18:18:02.709Z,14.40
2019-02-02T18:20:31.444Z,16.23
2019-02-02T18:23:00.209Z,15.43
2019-02-02T18:25:28.646Z,14.90
2019-02-02T18:27:57.068Z,14.20
2019-02-02T18:30:27.218Z,14.00
2019-02-02T18:32:55.638Z,14.13
2019-02-02T18:35:24.045Z,13.70
2019-02-02T18:37:52.745Z,12.20
2019-02-02T18:40:25.553Z,11.80
2019-02-02T18:42:54.591Z,12.10
2019-02-02T18:45:30.618Z,11.67
2019-02-02T18:47:59.041Z,11.83
2019-02-02T18:50:27.873Z,11.83
2019-02-02T18:52:58.584Z,10.70
2019-02-02T18:55:35.847Z,11.50
2019-02-02T18:58:05.033Z,11.27
2019-02-02T19:00:33.731Z,11.80
2019-02-02T19:03:02.142Z,11.97
2019-02-02T19:05:30.884Z,12.20
2019-02-02T19:07:59.302Z,12.47
2019-02-02T19:10:36.446Z,11.67
2019-02-02T19:13:05.806Z,11.80
2019-02-02T19:15:34.481Z,11.70
2019-02-02T19:18:03.451Z,12.03
2019-02-02T19:20:32.194Z,11.70
2019-02-02T19:23:00.611Z,11.77
2019-02-02T19:25:29.015Z,13.00
2019-02-02T19:27:57.847Z,12.77
2019-02-02T19:30:31.469Z,12.37
2019-02-02T19:32:59.882Z,12.50
2019-02-02T19:35:28.286Z,13.67
2019-02-02T19:37:56.717Z,12.60
2019-02-02T19:40:25.389Z,12.60
2019-02-02T19:42:53.823Z,11.73
2019-02-02T19:45:24.882Z,10.80
2019-02-02T19:47:53.576Z,10.53
2019-02-02T19:50:24.881Z,10.90
2019-02-02T19:52:54.026Z,11.70
2019-02-02T19:55:23.110Z,12.10
2019-02-02T19:57:51.513Z,11.90
2019-02-02T20:00:25.803Z,12.03
2019-02-02T20:02:55.145Z,12.43
2019-02-02T20:05:28.738Z,12.10
2019-02-02T20:07:54.089Z,11.93
2019-02-02T20:10:22.885Z,11.40
2019-02-02T20:12:51.374Z,10.93
2019-02-02T20:15:24.805Z,11.47
2019-02-02T20:17:53.211Z,11.33
2019-02-02T20:20:23.874Z,11.00
2019-02-02T20:22:52.566Z,11.20
2019-02-02T20:25:21.357Z,11.33
2019-02-02T20:27:50.399Z,12.20
2019-02-02T20:30:27.641Z,11.70
2019-02-02T20:32:56.920Z,11.47
2019-02-02T20:35:25.340Z,11.30
2019-02-02T20:37:53.825Z,11.93
2019-02-02T20:40:26.862Z,10.90
2019-02-02T20:42:55.744Z,11.10
2019-02-02T20:45:29.953Z,11.90
2019-02-02T20:47:58.362Z,11.50
2019-02-02T20:50:26.852Z,11.43
2019-02-02T20:52:55.273Z,10.67
2019-02-02T20:55:28.962Z,10.10
2019-02-02T20:57:57.383Z,10.00
2019-02-02T21:00:27.843Z,10.87
2019-02-02T21:02:56.888Z,10.97
2019-02-02T21:05:25.331Z,10.43
2019-02-02T21:07:53.758Z,10.67
2019-02-02T21:10:24.386Z,10.40
2019-02-02T21:12:52.794Z,10.57
2019-02-02T21:15:21.289Z,10.03
2019-02-02T21:17:49.761Z,10.70
2019-02-02T21:20:29.949Z,9.87
2019-02-02T21:22:58.526Z,11.07
2019-02-02T21:25:26.971Z,10.03
2019-02-02T21:27:55.450Z,10.60
2019-02-02T21:30:29.975Z,10.27
2019-02-02T21:32:58.460Z,11.40
2019-02-02T21:35:26.950Z,11.53
2019-02-02T21:37:55.377Z,12.63
2019-02-02T21:40:26.214Z,11.63
2019-02-02T21:43:06.256Z,12.47
2019-02-02T21:45:35.230Z,12.13
2019-02-02T21:48:04.014Z,12.53
2019-02-02T21:50:32.512Z,11.77
2019-02-02T21:53:00.937Z,11.80
2019-02-02T21:55:32.269Z,11.93
2019-02-02T21:58:00.756Z,11.53
2019-02-02T22:00:37.917Z,11.63
2019-02-02T22:03:07.266Z,11.83
2019-02-02T22:05:36.105Z,11.83
2019-02-02T22:08:06.858Z,13.07
2019-02-02T22:10:44.094Z,13.23
2019-02-02T22:13:12.581Z,12.70
2019-02-02T22:15:41.009Z,11.67
2019-02-02T22:18:09.419Z,12.50
2019-02-02T22:20:37.841Z,12.27
2019-02-02T22:23:06.266Z,12.93
2019-02-02T22:25:34.701Z,11.97
2019-02-02T22:28:03.107Z,11.43
2019-02-02T22:30:36.961Z,10.47
2019-02-02T22:33:06.278Z,11.10
2019-02-02T22:35:35.105Z,11.20
2019-02-02T22:38:04.264Z,12.23
2019-02-02T22:40:32.833Z,12.47
2019-02-02T22:43:01.249Z,12.27
2019-02-02T22:45:29.671Z,13.93
2019-02-02T22:47:58.431Z,14.80
2019-02-02T22:50:28.372Z,14.80
2019-02-02T22:52:56.781Z,14.23
2019-02-02T22:55:25.870Z,14.70
2019-02-02T22:57:55.170Z,14.50
2019-02-02T23:00:28.670Z,13.93
2019-02-02T23:02:58.189Z,14.33
2019-02-02T23:05:32.191Z,14.90
2019-02-02T23:08:04.001Z,14.70
2019-02-02T23:10:47.517Z,13.10
2019-02-02T23:13:24.775Z,12.37
2019-02-02T23:16:13.133Z,13.83
2019-02-02T23:18:40.877Z,13.43
2019-02-02T23:21:09.948Z,13.17
2019-02-02T23:23:38.354Z,12.47
2019-02-02T23:26:06.854Z,14.07
2019-02-02T23:28:35.261Z,13.20
2019-02-02T23:31:03.977Z,13.20
2019-02-02T23:33:32.387Z,14.07
2019-02-02T23:36:01.149Z,13.43
2019-02-02T23:38:29.549Z,13.60
2019-02-02T23:40:57.976Z,13.63
2019-02-02T23:43:26.391Z,14.97
2019-02-02T23:45:55.814Z,15.83
2019-02-02T23:48:24.221Z,15.00
2019-02-02T23:50:52.638Z,15.67
2019-02-02T23:53:21.057Z,15.13
2019-02-02T23:55:49.466Z,16.60
2019-02-02T23:58:17.898Z,16.10
